NCAR-RAP Real-Time Weather Data

Output produced by METARs form (21 May 2019  10:51 UTC)
found at http://weather.rap.ucar.edu/surface/
 
RJGG 211030Z 31018KT 9999 FEW020 20/10 Q1002 NOSIG
RJGG 211000Z 32021KT 9999 FEW020 20/10 Q1001 NOSIG
RJGG 210930Z 32021KT 9999 FEW020 SCT/// 21/08 Q1001 NOSIG
RJGG 210900Z 31019KT 9999 FEW020 BKN/// 21/11 Q1001 NOSIG
RJGG 210830Z 31018KT 9999 FEW020 BKN/// 21/12 Q1001 NOSIG
RJGG 210800Z 31018KT 9999 FEW020 BKN/// 22/13 Q1001 NOSIG
RJGG 210730Z 31018KT 9999 FEW020 SCT/// 22/12 Q1001 NOSIG
RJGG 210700Z 29017KT 9999 FEW020 22/13 Q1001 NOSIG
RJGG 210630Z 30013KT 9999 FEW020 23/13 Q1001 NOSIG
RJGG 210600Z 30013KT 9999 FEW020 SCT/// 22/14 Q1001 NOSIG
RJGG 210530Z 31015KT 9999 FEW020 BKN/// 22/13 Q1001 NOSIG
RJGG 210500Z 32015KT 9999 FEW020 BKN/// 22/13 Q1001 NOSIG
RJGG 210430Z 31015KT 9999 FEW020 BKN/// 22/14 Q1002 NOSIG
RJGG 210400Z 33013KT 9999 FEW020 BKN/// 22/14 Q1002 NOSIG
RJGG 210330Z 33009KT 9999 FEW020 BKN/// 23/15 Q1002 NOSIG
RJGG 210300Z 33008KT 9999 FEW020 SCT/// 21/15 Q1002 NOSIG
RJGG 210230Z 34013KT 9999 FEW020 SCT/// 21/15 Q1002 NOSIG
RJGG 210200Z 34013KT 9999 FEW020 SCT/// 21/15 Q1002 NOSIG
RJGG 210130Z 34012KT 9999 FEW020 BKN140 20/15 Q1003 NOSIG
RJGG 210100Z 01013KT 9999 VCSH FEW015 BKN035 BKN120 18/15 Q1002 NOSIG
RJGG 210030Z 35013KT 9999 -RA FEW010 BKN030 18/14 Q1003 NOSIG
RJGG 210000Z 34013KT 9999 -RA FEW010 BKN030 18/14 Q1003 NOSIG
RJGG 202330Z 33016KT 9999 -RA FEW010 BKN030 18/14 Q1003 NOSIG
RJGG 202300Z 33015KT 9999 -SHRA FEW010 BKN070 18/15 Q1002 NOSIG
RJGG 202230Z 32015KT 9999 -SHRA FEW008 SCT025 BKN070 18/16 Q1002 NOSIG
RJGG 202200Z 32005KT 7000 -SHRA FEW006 SCT020 BKN070 19/18 Q1002 NOSIG
RJGG 202130Z 26018KT 3000 SHRA BR FEW005 SCT015 BKN020 19/18 Q1001 BECMG 30015KT 7000 -SHRA
RJGG 202100Z 24016KT 2800 +SHRA BR FEW005 FEW020CB BKN025 19/18 Q1000 BECMG 28015KT 7000 -SHRA
RJGG 202030Z 23016KT 3200 SHRA BR FEW005 FEW020CB BKN025 19/18 Q1000 BECMG 28015KT 7000 -SHRA
RJGG 202000Z 22014KT 3200 SHRA BR FEW005 BKN020 FEW020CB 19/19 Q1000 BECMG 28015KT
RJGG 201930Z 21015KT 2500 R18/P1800N +SHRA BR FEW003 SCT007 BKN015 FEW020CB 20/19 Q1000 BECMG 28015KT 4000 SHRA BR
RJGG 201900Z 17020KT 2500 R18/P1800N +SHRA BR FEW004 SCT005 BKN007 20/19 Q1000 TEMPO 15034G45KT 1500 +SHRA BR
RJGG 201830Z 15029G39KT 5000 SHRA BR FEW006 BKN012 BKN020 21/20 Q1000 NOSIG
RJGG 201800Z 14028G38KT 5000 SHRA BR FEW005 BKN012 BKN020 21/20 Q1000 TEMPO 2000 SHRA BR FEW003 BKN008
RJGG 201730Z 13027KT 3500 SHRA BR FEW005 BKN012 BKN020 21/19 Q1001 TEMPO 1500 SHRA BR FEW003 BKN008
RJGG 201700Z 13020KT 2500 SHRA BR FEW005 BKN010 BKN020 20/19 Q1002 TEMPO 1500 +SHRA BR FEW003 BKN008
RJGG 201630Z 11017KT 1800 R18/P1800N +SHRA BR FEW003 BKN010 BKN030 19/18 Q1002 TEMPO 1500 +SHRA BR FEW003 BKN008
RJGG 201600Z 11020KT 1800 R18/1800U +SHRA BR FEW003 BKN007 BKN015 19/18 Q1004 NOSIG
RJGG 201530Z 12019KT 2500 R18/1600VP1800N +SHRA BR FEW004 BKN007 BKN020 19/18 Q1004 NOSIG
RJGG 201500Z 11022KT 3500 SHRA BR FEW004 BKN007 BKN020 19/18 Q1005 TEMPO 2000 SHRA BR
RJGG 201430Z 11024KT 4000 -SHRA BR FEW004 BKN007 BKN015 19/17 Q1005 TEMPO 3000 SHRA BR
RJGG 201400Z 12023KT 4000 -SHRA BR FEW004 BKN008 BKN015 19/17 Q1006 TEMPO 3000 SHRA BR
RJGG 201330Z 11023KT 4000 -SHRA BR FEW005 BKN010 BKN030 19/17 Q1006 NOSIG
RJGG 201300Z 11023KT 4500 -SHRA BR FEW007 SCT020 BKN040 19/17 Q1007 NOSIG
RJGG 201230Z 11024KT 9000 -SHRA FEW008 BKN040 19/17 Q1007 NOSIG
RJGG 201200Z 11023KT 9999 -SHRA FEW008 SCT020 BKN040 19/17 Q1008 NOSIG
RJGG 201130Z 11019KT 9000 -SHRA FEW008 SCT020 BKN080 19/17 Q1008 NOSIG
RJGG 201100Z 11019KT 9000 -SHRA FEW009 SCT015 BKN080 20/18 Q1009 NOSIG
RJGG 201030Z 10016KT 8000 -SHRA FEW008 BKN070 19/17 Q1009 NOSIG
RJGG 201000Z 13015KT 8000 -SHRA FEW010 BKN070 20/18 Q1010 NOSIG
RJGG 200930Z 13015KT 8000 -SHRA FEW010 BKN070 20/18 Q1010 TEMPO 4000 -SHRA BR
RJGG 200900Z 13013KT 8000 -SHRA FEW015 BKN070 20/18 Q1010 NOSIG
RJGG 200830Z 12016KT 9999 -SHRA FEW015 BKN020 BKN050 20/17 Q1010 NOSIG
RJGG 200800Z 12014KT 9999 FEW015 SCT020 BKN070 20/17 Q1010 BECMG 12024KT
RJGG 200730Z 12014KT 9999 VCSH FEW015 SCT020 BKN110 20/17 Q1010 BECMG 12024KT
RJGG 200700Z 11013KT 9999 VCSH FEW015 SCT025 BKN050 20/17 Q1011 BECMG 12024KT
RJGG 200630Z 11016KT 9999 FEW015 SCT025 BKN070 20/17 Q1011 NOSIG
RJGG 200600Z 12013KT 9999 VCSH FEW015 SCT025 BKN050 20/17 Q1011 BECMG 12024KT
RJGG 200530Z 12021KT 9999 -SHRA FEW015 SCT030 BKN045 20/17 Q1012 NOSIG
RJGG 200500Z 11021KT 9999 VCSH FEW015 BKN060 20/16 Q1012 NOSIG
RJGG 200430Z 13023KT 6000 -SHRA FEW012 BKN025 BKN045 19/16 Q1013 NOSIG
RJGG 200400Z 13021G31KT 9999 -SHRA FEW015 SCT025 BKN045 21/15 Q1013 NOSIG
RJGG 200330Z 12023KT 9999 -SHRA FEW015 SCT030 BKN045 21/15 Q1013 NOSIG
RJGG 200300Z 12024KT 9999 FEW015 BKN045 22/15 Q1013 NOSIG
RJGG 200230Z 13019KT 9999 FEW015 BKN050 23/15 Q1013 NOSIG
RJGG 200200Z 15022KT 9999 -SHRA FEW015 SCT025 BKN050 20/16 Q1014 NOSIG
RJGG 200130Z 13025KT 9999 VCSH FEW020 BKN060 22/15 Q1014 NOSIG
RJGG 200100Z 12019KT 9999 VCSH FEW020 BKN060 22/15 Q1014 NOSIG
RJGG 200030Z 12024KT 9999 FEW020 BKN070 22/15 Q1014 NOSIG
RJGG 200000Z 12022KT 9999 FEW020 BKN060 21/14 Q1015 NOSIG
RJGG 192330Z 12020KT 9999 FEW020 BKN060 21/14 Q1015 NOSIG
RJGG 192300Z 12021KT 9999 FEW020 BKN060 20/15 Q1014 NOSIG
RJGG 192230Z 11022KT 9999 FEW020 BKN060 20/14 Q1014 NOSIG
RJGG 192200Z 12022KT 9999 FEW020 BKN060 20/14 Q1014 NOSIG
RJGG 192130Z 12023KT 9999 FEW020 BKN060 20/14 Q1014 NOSIG
RJGG 192100Z 11021KT 9999 FEW020 BKN050 20/14 Q1015 NOSIG
RJGG 192030Z 11020KT 9999 FEW020 BKN050 20/14 Q1015 NOSIG
RJGG 192000Z 11018KT 9999 FEW020 BKN040 19/14 Q1015 NOSIG
RJGG 191930Z 11019KT 9999 FEW020 BKN040 20/14 Q1015 NOSIG
RJGG 191900Z 11021KT 9999 FEW020 BKN050 19/14 Q1015 NOSIG
RJGG 191830Z 11017KT 9999 FEW020 BKN060 19/14 Q1016 NOSIG
RJGG 191800Z 12015KT 9999 FEW020 BKN060 19/14 Q1017 NOSIG
RJGG 191730Z 12016KT 9999 FEW020 BKN060 19/14 Q1017 NOSIG
RJGG 191700Z 12016KT 9999 FEW020 SCT030 BKN060 19/15 Q1017 NOSIG
RJGG 191630Z 12015KT 9999 FEW020 BKN060 BKN/// 19/15 Q1017 NOSIG
RJGG 191600Z 12011KT 9999 FEW020 SCT030 BKN/// 19/15 Q1017 NOSIG
RJGG 191530Z 11012KT 9999 FEW020 SCT030 BKN/// 19/15 Q1017 NOSIG
RJGG 191500Z 13012KT 9999 FEW025 SCT030 BKN060 20/15 Q1018 NOSIG
RJGG 191430Z 14010KT 9999 FEW025 BKN030 BKN/// 20/14 Q1018 NOSIG
RJGG 191400Z 13011KT 9999 FEW025 BKN/// 20/15 Q1019 NOSIG
RJGG 191330Z 12012KT 9999 FEW025 BKN/// 20/14 Q1019 NOSIG
RJGG 191300Z 12013KT 9999 FEW025 BKN/// 20/14 Q1019 NOSIG
RJGG 191230Z 13012KT 9999 FEW025 BKN/// 20/14 Q1019 NOSIG
RJGG 191200Z 13013KT 9999 FEW025 BKN/// 20/14 Q1019 NOSIG
RJGG 191130Z 13013KT 9999 FEW025 BKN/// 20/14 Q1019 NOSIG
RJGG 191100Z 12015KT 9999 FEW025 BKN/// 20/14 Q1019 NOSIG
RJGG 191030Z 13013KT 9999 FEW025 BKN/// 20/14 Q1019 NOSIG
RJGG 191000Z 13015KT 9999 FEW025 BKN/// 20/14 Q1019 NOSIG
RJGG 190930Z 13016KT 9999 FEW025 BKN/// 21/14 Q1019 NOSIG
RJGG 190900Z 14014KT 9999 FEW025 BKN/// 21/14 Q1018 NOSIG
RJGG 190830Z 14015KT 9999 FEW020 BKN/// 22/13 Q1018 NOSIG
RJGG 190800Z 13017KT 9999 FEW020 BKN/// 22/13 Q1019 NOSIG
RJGG 190730Z 13020KT 9999 FEW020 BKN/// 23/13 Q1018 NOSIG
RJGG 190700Z 12021KT 9999 FEW020 BKN/// 23/13 Q1019 NOSIG
RJGG 190630Z 12020KT 9999 FEW020 SCT/// 23/13 Q1018 NOSIG
RJGG 190600Z 15018KT 9999 FEW020 SCT/// 24/12 Q1019 NOSIG
RJGG 190530Z 15017KT 9999 FEW020 BKN/// 22/13 Q1019 NOSIG
RJGG 190500Z 13021KT 9999 FEW020 BKN/// 23/14 Q1019 NOSIG
RJGG 190430Z 13022KT 9999 VCSH FEW020 SCT/// 24/14 Q1019 NOSIG
RJGG 190400Z 13024KT 9999 FEW030 23/14 Q1019 NOSIG
RJGG 190330Z 13021KT 9999 FEW030 SCT/// 24/15 Q1019 NOSIG
RJGG 190300Z 13021KT 9999 FEW030 24/13 Q1019 NOSIG
RJGG 190230Z 12022KT 9999 FEW025 BKN/// 24/13 Q1020 NOSIG
RJGG 190200Z 12020KT 9999 FEW025 BKN070 22/14 Q1020 NOSIG
RJGG 190130Z 13019KT 9999 FEW025 SCT030 BKN070 22/14 Q1020 NOSIG
RJGG 190100Z 13018KT 9999 FEW025 BKN070 22/14 Q1020 NOSIG
RJGG 190030Z 12018KT 9999 FEW020 BKN070 22/14 Q1020 NOSIG
RJGG 190000Z 12019KT 9999 VCSH FEW020 BKN060 21/14 Q1020 NOSIG
RJGG 182330Z 11018KT 9999 FEW020 SCT060 22/14 Q1020 NOSIG
RJGG 182300Z 11016KT 9999 VCSH FEW020 SCT130 22/13 Q1020 NOSIG